createdAt,value
2019-02-23T00:02:23.427Z,1.07
2019-02-23T00:04:51.864Z,0.97
2019-02-23T00:07:20.408Z,1.00
2019-02-23T00:09:48.921Z,1.03
2019-02-23T00:12:17.460Z,1.00
2019-02-23T00:14:46.194Z,1.20
2019-02-23T00:17:14.720Z,0.83
2019-02-23T00:19:43.174Z,0.87
2019-02-23T00:22:11.718Z,1.23
2019-02-23T00:24:40.230Z,1.00
2019-02-23T00:27:08.673Z,0.90
2019-02-23T00:29:37.571Z,0.80
2019-02-23T00:32:06.093Z,1.00
2019-02-23T00:34:34.608Z,0.73
2019-02-23T00:37:03.336Z,1.10
2019-02-23T00:39:31.867Z,1.13
2019-02-23T00:42:00.496Z,0.80
2019-02-23T00:44:28.963Z,0.80
2019-02-23T00:46:57.418Z,0.87
2019-02-23T00:49:35.749Z,0.80
2019-02-23T00:51:56.228Z,1.10
2019-02-23T00:54:24.697Z,0.90
2019-02-23T00:56:53.284Z,0.90
2019-02-23T00:59:21.730Z,0.80
2019-02-23T01:01:50.192Z,0.80
2019-02-23T01:04:18.752Z,0.93
2019-02-23T01:06:47.254Z,0.90
2019-02-23T01:09:15.716Z,1.00
2019-02-23T01:11:44.264Z,1.00
2019-02-23T01:14:12.785Z,0.90
2019-02-23T01:16:41.300Z,1.00
2019-02-23T01:19:09.891Z,0.90
2019-02-23T01:21:59.382Z,1.00
2019-02-23T01:24:27.940Z,1.00
2019-02-23T01:26:56.603Z,1.00
2019-02-23T01:29:25.051Z,1.00
2019-02-23T01:31:53.599Z,1.27
2019-02-23T01:34:22.057Z,2.17
2019-02-23T01:36:50.672Z,1.13
2019-02-23T01:39:19.130Z,1.20
2019-02-23T01:41:47.583Z,1.10
2019-02-23T01:44:16.087Z,1.10
2019-02-23T01:46:44.567Z,1.10
2019-02-23T01:49:13.023Z,1.13
2019-02-23T01:51:41.500Z,1.03
2019-02-23T01:54:10.000Z,1.00
2019-02-23T01:56:38.462Z,1.03
2019-02-23T01:59:06.986Z,1.20
2019-02-23T02:01:35.497Z,1.20
2019-02-23T02:04:04.098Z,1.10
2019-02-23T02:06:33.638Z,1.10
2019-02-23T02:09:02.537Z,1.20
2019-02-23T02:11:30.981Z,1.10
2019-02-23T02:13:59.507Z,1.00
2019-02-23T02:16:28.084Z,1.10
2019-02-23T02:18:56.538Z,1.30
2019-02-23T02:21:24.992Z,1.20
2019-02-23T02:23:53.461Z,1.10
2019-02-23T02:26:22.002Z,1.37
2019-02-23T02:28:50.641Z,1.27
2019-02-23T02:31:19.226Z,1.23
2019-02-23T02:34:06.191Z,1.27
2019-02-23T02:36:34.658Z,1.20
2019-02-23T02:39:04.452Z,1.20
2019-02-23T02:41:33.043Z,1.37
2019-02-23T02:44:01.509Z,1.30
2019-02-23T02:46:29.955Z,1.13
2019-02-23T02:48:58.491Z,1.30
2019-02-23T02:51:27.136Z,1.90
2019-02-23T02:53:55.689Z,1.37
2019-02-23T02:56:24.288Z,1.70
2019-02-23T02:58:52.730Z,1.63
2019-02-23T03:01:21.175Z,1.60
2019-02-23T03:03:49.697Z,1.37
2019-02-23T03:06:18.153Z,1.60
2019-02-23T03:08:46.709Z,1.50
2019-02-23T03:11:15.230Z,1.80
2019-02-23T03:13:43.679Z,1.90
2019-02-23T03:16:12.126Z,1.97
2019-02-23T03:18:40.661Z,1.87
2019-02-23T03:21:09.111Z,1.93
2019-02-23T03:23:37.570Z,2.03
2019-02-23T03:26:06.100Z,1.70
2019-02-23T03:28:34.553Z,2.37
2019-02-23T03:31:02.997Z,1.87
2019-02-23T03:33:31.466Z,2.30
2019-02-23T03:35:59.918Z,2.00
2019-02-23T03:38:28.534Z,1.90
2019-02-23T03:40:57.059Z,1.90
2019-02-23T03:43:25.508Z,1.93
2019-02-23T03:45:54.078Z,1.97
2019-02-23T03:48:22.527Z,1.93
2019-02-23T03:50:50.979Z,2.20
2019-02-23T03:53:19.481Z,2.10
2019-02-23T03:55:48.087Z,1.83
2019-02-23T03:58:16.532Z,1.80
2019-02-23T04:00:45.068Z,2.13
2019-02-23T04:03:13.545Z,2.10
2019-02-23T04:05:42.165Z,2.33
2019-02-23T04:08:10.673Z,2.07
2019-02-23T04:10:39.122Z,2.00
2019-02-23T04:13:07.571Z,1.97
2019-02-23T04:15:36.225Z,2.10
2019-02-23T04:18:04.816Z,2.10
2019-02-23T04:21:01.734Z,2.30
2019-02-23T04:23:24.536Z,2.30
2019-02-23T04:25:53.059Z,1.90
2019-02-23T04:28:21.577Z,2.20
2019-02-23T04:30:50.197Z,2.00
2019-02-23T04:33:18.653Z,2.43
2019-02-23T04:35:47.108Z,2.10
2019-02-23T04:38:15.710Z,2.50
2019-02-23T04:40:44.224Z,2.30
2019-02-23T04:43:12.680Z,2.30
2019-02-23T04:45:41.404Z,2.20
2019-02-23T04:48:09.869Z,2.20
2019-02-23T04:50:38.384Z,2.40
2019-02-23T04:53:06.855Z,2.13
2019-02-23T04:55:35.338Z,2.50
2019-02-23T04:58:03.917Z,2.70
2019-02-23T05:00:32.380Z,2.70
2019-02-23T05:03:22.079Z,2.63
2019-02-23T05:05:50.577Z,2.53
2019-02-23T05:08:19.108Z,2.40
2019-02-23T05:10:47.589Z,2.60
2019-02-23T05:13:16.129Z,3.10
2019-02-23T05:15:44.897Z,2.50
2019-02-23T05:18:13.347Z,2.90
2019-02-23T05:20:41.862Z,3.33
2019-02-23T05:23:10.383Z,3.20
2019-02-23T05:25:38.837Z,3.00
2019-02-23T05:28:07.355Z,3.07
2019-02-23T05:30:36.002Z,3.40
2019-02-23T05:33:04.475Z,3.40
2019-02-23T05:35:32.923Z,3.10
2019-02-23T05:38:01.544Z,3.07
2019-02-23T05:40:30.000Z,3.20
2019-02-23T05:43:01.188Z,3.40
2019-02-23T05:45:28.649Z,3.50
2019-02-23T05:47:57.172Z,3.17
2019-02-23T05:50:25.704Z,3.20
2019-02-23T05:52:54.231Z,3.23
2019-02-23T05:55:22.678Z,3.53
2019-02-23T05:57:51.288Z,4.30
2019-02-23T06:00:19.906Z,3.23
2019-02-23T06:02:48.356Z,3.73
2019-02-23T06:05:16.877Z,3.37
2019-02-23T06:07:45.423Z,3.40
2019-02-23T06:10:14.007Z,3.70
2019-02-23T06:12:42.528Z,3.40
2019-02-23T06:15:12.494Z,3.33
2019-02-23T06:17:40.961Z,3.77
2019-02-23T06:20:09.916Z,3.50
2019-02-23T06:22:38.445Z,3.57
2019-02-23T06:25:08.507Z,3.43
2019-02-23T06:27:37.240Z,4.00
2019-02-23T06:30:11.596Z,3.70
2019-02-23T06:32:40.142Z,3.93
2019-02-23T06:35:10.023Z,3.87
2019-02-23T06:37:38.551Z,3.80
2019-02-23T06:40:09.209Z,3.83
2019-02-23T06:42:37.729Z,3.87
2019-02-23T06:45:09.250Z,3.90
2019-02-23T06:47:37.777Z,3.70
2019-02-23T06:50:07.472Z,3.80
2019-02-23T06:52:35.922Z,3.87
2019-02-23T06:55:05.017Z,4.03
2019-02-23T06:57:33.500Z,3.67
2019-02-23T07:00:02.017Z,3.57
2019-02-23T07:02:30.470Z,3.53
2019-02-23T07:04:58.931Z,3.23
2019-02-23T07:07:27.463Z,3.60
2019-02-23T07:09:55.925Z,3.57
2019-02-23T07:12:24.417Z,3.27
2019-02-23T07:15:07.362Z,3.63
2019-02-23T07:17:35.896Z,3.23
2019-02-23T07:20:06.684Z,3.30
2019-02-23T07:22:35.283Z,3.27
2019-02-23T07:25:06.160Z,3.20
2019-02-23T07:27:34.616Z,3.60
2019-02-23T07:30:03.144Z,3.30
2019-02-23T07:32:31.591Z,3.70
2019-02-23T07:35:02.472Z,3.70
2019-02-23T07:37:30.288Z,3.83
2019-02-23T07:39:58.748Z,3.40
2019-02-23T07:42:27.195Z,3.40
2019-02-23T07:44:55.750Z,3.70
2019-02-23T07:47:24.221Z,3.60
2019-02-23T07:49:52.817Z,3.27
2019-02-23T07:52:26.264Z,3.63
2019-02-23T07:54:51.456Z,3.57
2019-02-23T07:57:20.043Z,3.53
2019-02-23T07:59:48.491Z,3.57
2019-02-23T08:02:36.373Z,3.50
2019-02-23T08:05:07.912Z,3.50
2019-02-23T08:07:36.396Z,3.50
2019-02-23T08:10:07.995Z,3.60
2019-02-23T08:12:36.550Z,3.33
2019-02-23T08:15:08.103Z,3.40
2019-02-23T08:17:36.633Z,3.47
2019-02-23T08:20:08.302Z,3.50
2019-02-23T08:22:37.517Z,3.43
2019-02-23T08:25:09.123Z,3.77
2019-02-23T08:27:37.656Z,3.60
2019-02-23T08:30:12.200Z,3.37
2019-02-23T08:32:40.647Z,3.53
2019-02-23T08:35:09.412Z,3.50
2019-02-23T08:37:37.891Z,3.57
2019-02-23T08:40:14.600Z,3.90
2019-02-23T08:42:43.131Z,3.90
2019-02-23T08:45:11.656Z,3.63
2019-02-23T08:47:40.257Z,3.70
2019-02-23T08:50:11.723Z,3.40
2019-02-23T08:52:48.704Z,3.60
2019-02-23T08:55:10.885Z,3.47
2019-02-23T08:57:39.438Z,3.67
2019-02-23T09:00:13.660Z,3.80
2019-02-23T09:02:46.693Z,3.90
2019-02-23T09:05:15.557Z,3.83
2019-02-23T09:07:44.130Z,3.80
2019-02-23T09:10:13.767Z,3.40
2019-02-23T09:12:42.577Z,3.67
2019-02-23T09:15:12.047Z,3.47
2019-02-23T09:17:43.592Z,4.17
2019-02-23T09:20:12.745Z,3.23
2019-02-23T09:22:41.751Z,3.73
2019-02-23T09:25:11.144Z,4.70
2019-02-23T09:27:39.734Z,3.90
2019-02-23T09:30:13.507Z,3.80
2019-02-23T09:32:42.036Z,3.87
2019-02-23T09:35:10.712Z,4.10
2019-02-23T09:37:39.233Z,3.87
2019-02-23T09:40:10.867Z,4.00
2019-02-23T09:42:39.641Z,4.00
2019-02-23T09:45:10.680Z,4.23
2019-02-23T09:47:39.147Z,4.03
2019-02-23T09:50:08.131Z,4.30
2019-02-23T09:52:36.683Z,3.80
2019-02-23T09:55:06.343Z,4.03
2019-02-23T09:57:34.857Z,3.93
2019-02-23T10:00:03.652Z,3.90
2019-02-23T10:02:32.105Z,3.90
2019-02-23T10:05:00.606Z,4.00
2019-02-23T10:07:29.116Z,3.80
2019-02-23T10:09:57.569Z,3.87
2019-02-23T10:12:26.123Z,3.80
2019-02-23T10:14:54.743Z,3.93
2019-02-23T10:17:23.276Z,3.80
2019-02-23T10:19:51.743Z,4.07
2019-02-23T10:22:20.188Z,4.03
2019-02-23T10:24:48.718Z,4.10
2019-02-23T10:27:17.249Z,3.80
2019-02-23T10:29:45.693Z,4.00
2019-02-23T10:32:14.179Z,4.20
2019-02-23T10:34:42.748Z,4.30
2019-02-23T10:37:11.347Z,4.50
2019-02-23T10:39:39.803Z,4.07
2019-02-23T10:42:08.291Z,3.87
2019-02-23T10:44:36.739Z,4.50
2019-02-23T10:47:24.610Z,4.20
2019-02-23T10:49:53.055Z,4.30
2019-02-23T10:52:21.683Z,4.17
2019-02-23T10:54:50.258Z,4.40
2019-02-23T10:57:18.760Z,3.93
2019-02-23T10:59:47.211Z,4.40
2019-02-23T11:02:15.939Z,4.20
2019-02-23T11:04:44.468Z,4.40
2019-02-23T11:07:13.278Z,4.50
2019-02-23T11:09:41.872Z,4.33
2019-02-23T11:12:10.454Z,4.20
2019-02-23T11:14:39.050Z,4.70
2019-02-23T11:17:07.504Z,4.40
2019-02-23T11:19:35.960Z,4.60
2019-02-23T11:22:04.556Z,4.10
2019-02-23T11:24:33.035Z,4.40
2019-02-23T11:27:01.543Z,4.37
2019-02-23T11:29:30.416Z,4.77
2019-02-23T11:31:59.031Z,4.27
2019-02-23T11:34:27.482Z,4.40
2019-02-23T11:36:56.188Z,4.43
2019-02-23T11:39:24.633Z,4.23
2019-02-23T11:41:53.155Z,4.73
2019-02-23T11:44:21.699Z,4.53
2019-02-23T11:46:59.809Z,4.50
2019-02-23T11:49:20.323Z,4.17
2019-02-23T11:51:48.888Z,4.57
2019-02-23T11:54:17.361Z,4.70
2019-02-23T11:56:45.867Z,4.60
2019-02-23T11:59:14.407Z,4.60
2019-02-23T12:01:42.857Z,4.13
2019-02-23T12:04:11.320Z,4.37
2019-02-23T12:06:39.846Z,5.00
2019-02-23T12:09:08.904Z,4.70
2019-02-23T12:11:37.358Z,4.80
2019-02-23T12:14:06.034Z,4.50
2019-02-23T12:16:34.579Z,4.80
2019-02-23T12:19:03.091Z,4.37
2019-02-23T12:21:31.680Z,4.60
2019-02-23T12:24:06.036Z,5.23
2019-02-23T12:26:49.736Z,4.87
2019-02-23T12:29:18.384Z,4.67
2019-02-23T12:31:46.943Z,4.60
2019-02-23T12:34:15.663Z,4.40
2019-02-23T12:36:44.169Z,4.47
2019-02-23T12:39:12.631Z,4.80
2019-02-23T12:41:41.403Z,4.57
2019-02-23T12:44:09.868Z,4.67
2019-02-23T12:46:38.315Z,4.90
2019-02-23T12:49:08.492Z,4.77
2019-02-23T12:51:37.015Z,4.70
2019-02-23T12:54:09.821Z,4.83
2019-02-23T12:56:35.852Z,4.60
2019-02-23T12:59:04.295Z,4.83
2019-02-23T13:01:32.824Z,4.97
2019-02-23T13:04:01.373Z,4.80
2019-02-23T13:06:29.828Z,4.47
2019-02-23T13:09:18.312Z,5.00
2019-02-23T13:11:49.856Z,5.00
2019-02-23T13:14:33.763Z,5.03
2019-02-23T13:17:11.155Z,4.83
2019-02-23T13:19:57.988Z,4.43
2019-02-23T13:22:49.662Z,4.70
2019-02-23T13:25:32.994Z,5.07
2019-02-23T13:28:19.467Z,4.60
2019-02-23T13:31:14.776Z,4.97
2019-02-23T13:34:07.686Z,4.70
2019-02-23T13:36:57.501Z,4.80
2019-02-23T13:39:45.398Z,5.10
2019-02-23T13:42:31.809Z,5.23
2019-02-23T13:45:28.808Z,5.30
2019-02-23T13:48:03.022Z,4.57
2019-02-23T13:51:25.525Z,4.77
2019-02-23T13:54:24.669Z,5.20
2019-02-23T13:57:02.126Z,4.80
2019-02-23T13:59:51.768Z,4.60
2019-02-23T14:02:43.936Z,4.80
2019-02-23T14:05:36.695Z,4.20
2019-02-23T14:08:41.631Z,4.90
2019-02-23T14:11:29.710Z,4.67
2019-02-23T14:14:07.151Z,4.70
2019-02-23T14:16:41.649Z,4.80
2019-02-23T14:19:18.693Z,5.00
2019-02-23T14:21:53.360Z,4.97
2019-02-23T14:24:50.455Z,4.80
2019-02-23T14:27:51.761Z,4.60
2019-02-23T14:30:46.022Z,4.70
2019-02-23T14:33:38.293Z,4.97
2019-02-23T14:36:33.465Z,5.00
2019-02-23T14:39:43.591Z,4.60
2019-02-23T14:42:35.780Z,5.00
2019-02-23T14:45:28.480Z,4.70
2019-02-23T14:51:12.837Z,4.80
2019-02-23T14:53:59.021Z,4.33
2019-02-23T14:56:42.399Z,5.20
2019-02-23T14:59:30.381Z,4.60
2019-02-23T15:02:27.508Z,4.60
2019-02-23T15:05:30.772Z,5.03
2019-02-23T15:08:11.330Z,5.03
2019-02-23T15:10:51.352Z,4.77
2019-02-23T15:13:22.917Z,4.73
2019-02-23T15:16:26.505Z,4.63
2019-02-23T15:19:12.251Z,4.67
2019-02-23T15:21:46.503Z,5.00
2019-02-23T15:24:18.204Z,4.70
2019-02-23T15:26:55.248Z,5.30
2019-02-23T15:29:29.456Z,4.53
2019-02-23T15:32:16.081Z,5.17
2019-02-23T15:35:16.120Z,4.50
2019-02-23T15:38:02.455Z,5.00
2019-02-23T15:40:36.685Z,4.77
2019-02-23T15:43:37.739Z,4.30
2019-02-23T15:46:12.167Z,4.77
2019-02-23T15:48:49.546Z,4.93
2019-02-23T15:51:18.087Z,4.87
2019-02-23T15:53:46.686Z,5.90
2019-02-23T15:56:15.283Z,4.60
2019-02-23T15:58:43.744Z,4.43
2019-02-23T16:01:12.333Z,4.93
2019-02-23T16:03:40.938Z,4.90
2019-02-23T16:06:09.403Z,5.10
2019-02-23T16:08:37.932Z,5.63
2019-02-23T16:11:06.565Z,5.37
2019-02-23T16:13:35.072Z,5.17
2019-02-23T16:16:03.821Z,5.00
2019-02-23T16:18:32.940Z,5.13
2019-02-23T16:21:01.392Z,6.07
2019-02-23T16:23:35.281Z,6.40
2019-02-23T16:26:00.185Z,6.60
2019-02-23T16:28:28.709Z,5.90
2019-02-23T16:30:57.170Z,5.70
2019-02-23T16:33:25.816Z,6.13
2019-02-23T16:35:54.393Z,6.33
2019-02-23T16:38:22.862Z,6.80
2019-02-23T16:40:51.676Z,6.97
2019-02-23T16:43:20.311Z,6.60
2019-02-23T16:45:48.889Z,6.83
2019-02-23T16:48:17.428Z,6.73
2019-02-23T16:50:45.891Z,6.60
2019-02-23T16:53:14.415Z,7.20
2019-02-23T16:55:50.860Z,7.10
2019-02-23T16:58:13.167Z,7.30
2019-02-23T17:00:41.729Z,6.57
2019-02-23T17:03:10.313Z,6.73
2019-02-23T17:05:38.901Z,7.10
2019-02-23T17:08:07.453Z,6.37
2019-02-23T17:10:36.036Z,7.50
2019-02-23T17:13:04.489Z,6.67
2019-02-23T17:15:33.021Z,7.10
2019-02-23T17:18:21.083Z,7.23
2019-02-23T17:20:49.716Z,7.47
2019-02-23T17:23:18.198Z,7.40
2019-02-23T17:25:46.679Z,7.70
2019-02-23T17:28:15.140Z,7.33
2019-02-23T17:30:43.645Z,7.97
2019-02-23T17:33:12.106Z,8.17
2019-02-23T17:35:40.570Z,7.53
2019-02-23T17:38:16.836Z,8.57
2019-02-23T17:40:39.363Z,7.97
2019-02-23T17:43:08.102Z,8.67
2019-02-23T17:45:36.690Z,8.87
2019-02-23T17:48:05.149Z,8.37
2019-02-23T17:50:33.685Z,8.63
2019-02-23T17:53:02.312Z,8.63
2019-02-23T17:55:30.848Z,9.13
2019-02-23T17:57:59.304Z,9.13
2019-02-23T18:00:27.836Z,8.57
2019-02-23T18:02:56.288Z,8.87
2019-02-23T18:05:24.757Z,8.60
2019-02-23T18:07:53.286Z,8.23
2019-02-23T18:10:21.736Z,8.13
2019-02-23T18:12:50.205Z,8.00
2019-02-23T18:15:20.362Z,8.17
2019-02-23T18:17:48.824Z,7.57
2019-02-23T18:20:17.287Z,8.10
2019-02-23T18:22:45.985Z,7.90
2019-02-23T18:25:14.509Z,7.83
2019-02-23T18:27:42.992Z,7.13
2019-02-23T18:30:13.979Z,7.07
2019-02-23T18:32:41.843Z,7.43
2019-02-23T18:35:10.457Z,7.17
2019-02-23T18:37:39.052Z,7.97
2019-02-23T18:40:08.554Z,8.10
2019-02-23T18:42:37.148Z,7.57
2019-02-23T18:45:07.914Z,7.57
2019-02-23T18:47:36.468Z,7.63
2019-02-23T18:50:06.562Z,7.33
2019-02-23T18:52:35.089Z,6.97
2019-02-23T18:55:03.751Z,7.67
2019-02-23T18:57:32.317Z,7.70
2019-02-23T19:00:00.925Z,8.50
2019-02-23T19:02:29.432Z,8.10
2019-02-23T19:04:58.002Z,7.70
2019-02-23T19:07:26.537Z,7.33
2019-02-23T19:09:54.991Z,7.90
2019-02-23T19:12:23.449Z,7.80
2019-02-23T19:14:52.120Z,8.10
2019-02-23T19:17:20.644Z,7.50
2019-02-23T19:19:49.187Z,8.00
2019-02-23T19:22:17.856Z,7.70
2019-02-23T19:24:46.442Z,7.63
2019-02-23T19:27:14.887Z,7.70
2019-02-23T19:29:43.439Z,7.40
2019-02-23T19:32:11.894Z,7.53
2019-02-23T19:34:40.418Z,7.40
2019-02-23T19:37:09.106Z,7.57
2019-02-23T19:39:37.571Z,7.97
2019-02-23T19:42:07.129Z,7.60
2019-02-23T19:44:35.595Z,7.53
2019-02-23T19:47:04.588Z,7.37
2019-02-23T19:49:33.159Z,7.67
2019-02-23T19:52:01.709Z,7.37
2019-02-23T19:54:30.169Z,7.43
2019-02-23T19:56:58.693Z,7.40
2019-02-23T19:59:27.184Z,7.03
2019-02-23T20:01:55.709Z,7.90
2019-02-23T20:04:24.244Z,7.17
2019-02-23T20:06:52.699Z,7.33
2019-02-23T20:09:21.231Z,7.40
2019-02-23T20:11:49.755Z,7.23
2019-02-23T20:14:18.219Z,7.37
2019-02-23T20:16:46.672Z,7.30
2019-02-23T20:19:15.222Z,7.03
2019-02-23T20:21:43.773Z,7.33
2019-02-23T20:24:12.226Z,6.47
2019-02-23T20:26:42.185Z,6.37
2019-02-23T20:29:11.192Z,7.07
2019-02-23T20:31:39.644Z,7.53
2019-02-23T20:34:08.383Z,7.10
2019-02-23T20:36:36.992Z,7.23
2019-02-23T20:39:05.692Z,7.13
2019-02-23T20:41:34.225Z,6.83
2019-02-23T20:44:02.755Z,7.37
2019-02-23T20:46:31.243Z,7.73
2019-02-23T20:48:59.839Z,6.23
2019-02-23T20:51:28.288Z,6.53
2019-02-23T20:53:57.056Z,6.40
2019-02-23T20:56:25.742Z,6.13
2019-02-23T20:58:54.201Z,6.43
2019-02-23T21:01:22.718Z,6.10
2019-02-23T21:03:51.428Z,6.40
2019-02-23T21:06:19.884Z,5.77
2019-02-23T21:08:48.455Z,6.50
2019-02-23T21:11:16.988Z,6.63
2019-02-23T21:13:45.442Z,6.80
2019-02-23T21:16:15.293Z,6.77
2019-02-23T21:18:44.028Z,6.93
2019-02-23T21:21:12.742Z,7.00
2019-02-23T21:23:41.372Z,7.10
2019-02-23T21:26:09.895Z,6.67
2019-02-23T21:28:38.354Z,7.57
2019-02-23T21:31:06.812Z,6.90
2019-02-23T21:33:35.482Z,6.67
2019-02-23T21:36:03.937Z,6.97
2019-02-23T21:38:32.411Z,7.40
2019-02-23T21:41:01.016Z,7.67
2019-02-23T21:43:29.477Z,7.47
2019-02-23T21:45:57.929Z,7.77
2019-02-23T21:48:26.447Z,7.23
2019-02-23T21:50:54.895Z,6.87
2019-02-23T21:53:23.416Z,7.13
2019-02-23T21:55:52.124Z,7.60
2019-02-23T21:58:20.720Z,7.67
2019-02-23T22:00:49.172Z,7.07
2019-02-23T22:03:17.797Z,7.20
2019-02-23T22:05:46.340Z,6.83
2019-02-23T22:08:14.834Z,7.27
2019-02-23T22:11:02.711Z,7.63
2019-02-23T22:13:31.276Z,7.37
2019-02-23T22:15:59.730Z,7.47
2019-02-23T22:18:28.297Z,7.33
2019-02-23T22:20:56.897Z,7.27
2019-02-23T22:23:25.433Z,7.60
2019-02-23T22:25:54.057Z,6.87
2019-02-23T22:28:22.523Z,8.00
2019-02-23T22:30:51.052Z,7.00
2019-02-23T22:33:19.550Z,7.43
2019-02-23T22:35:48.111Z,6.53
2019-02-23T22:38:16.657Z,7.40
2019-02-23T22:40:45.273Z,7.70
2019-02-23T22:43:14.318Z,7.23
2019-02-23T22:45:42.889Z,7.93
2019-02-23T22:48:11.565Z,7.53
2019-02-23T22:50:40.041Z,7.90
2019-02-23T22:53:08.598Z,7.60
2019-02-23T22:55:37.192Z,7.47
2019-02-23T22:58:05.756Z,7.70
2019-02-23T23:00:38.812Z,7.40
2019-02-23T23:03:07.569Z,7.50
2019-02-23T23:05:36.024Z,7.57
2019-02-23T23:08:04.615Z,7.63
2019-02-23T23:10:33.129Z,7.33
2019-02-23T23:13:01.705Z,7.80
2019-02-23T23:15:30.246Z,7.97
2019-02-23T23:17:58.696Z,7.80
2019-02-23T23:20:27.150Z,8.20
2019-02-23T23:22:55.843Z,7.70
2019-02-23T23:25:24.297Z,8.10
2019-02-23T23:27:52.776Z,8.17
2019-02-23T23:30:21.323Z,7.77
2019-02-23T23:32:50.044Z,8.07
2019-02-23T23:35:18.568Z,8.13
2019-02-23T23:37:47.111Z,8.50
2019-02-23T23:40:15.565Z,8.63
2019-02-23T23:42:44.019Z,8.10
2019-02-23T23:45:12.900Z,8.40
2019-02-23T23:47:41.425Z,8.40
2019-02-23T23:50:09.955Z,8.43
2019-02-23T23:52:38.474Z,8.07
2019-02-23T23:55:07.162Z,8.20
2019-02-23T23:57:35.617Z,8.67
